createdAt,value
2022-08-24T00:01:51.455Z,93393.44
2022-08-24T00:16:54.202Z,93414.88
2022-08-24T00:31:55.821Z,93447.38
2022-08-24T00:47:03.688Z,93442.78
2022-08-24T01:02:15.309Z,93449.59
2022-08-24T01:17:38.788Z,93462.09
2022-08-24T01:32:41.432Z,93478.78
2022-08-24T01:47:42.998Z,93478.06
2022-08-24T02:02:44.743Z,93478.53
2022-08-24T02:17:46.258Z,93503.41
2022-08-24T02:32:47.829Z,93503.63
2022-08-24T02:47:49.394Z,93513.38
2022-08-24T03:02:51.667Z,93520.78
2022-08-24T03:17:53.363Z,93511.44
2022-08-24T03:32:54.934Z,93523.66
2022-08-24T03:47:56.544Z,93531.06
2022-08-24T04:02:58.082Z,93538.88
2022-08-24T04:17:59.689Z,93534.19
2022-08-24T04:33:01.313Z,93553.34
2022-08-24T04:48:02.960Z,93553.59
2022-08-24T05:03:05.105Z,93556.94
2022-08-24T05:18:07.528Z,93544.34
2022-08-24T05:33:09.172Z,93549.66
2022-08-24T05:48:10.753Z,93536.44
2022-08-24T06:03:14.791Z,93543.13
2022-08-24T06:18:16.461Z,93548.19
2022-08-24T06:33:18.114Z,93550.09
2022-08-24T06:48:19.674Z,93548.94
2022-08-24T07:03:21.324Z,93562.56
2022-08-24T07:18:23.185Z,93564.41
2022-08-24T07:33:25.473Z,93580.94
2022-08-24T07:48:28.612Z,93577.53
2022-08-24T08:03:32.058Z,93558.56
2022-08-24T08:18:33.703Z,93541.38
2022-08-24T08:33:38.193Z,93546.84
2022-08-24T08:48:39.787Z,93543.09
2022-08-24T09:04:12.724Z,93554.44
2022-08-24T09:19:42.316Z,93558.53
2022-08-24T09:34:50.846Z,93539.28
2022-08-24T09:50:10.262Z,93517.53
2022-08-24T10:05:15.677Z,93495.59
2022-08-24T10:20:17.254Z,93479.03
2022-08-24T10:35:26.042Z,93478.31
2022-08-24T10:50:40.950Z,93478.13
2022-08-24T11:05:47.832Z,93468.28
2022-08-24T11:20:51.182Z,93471.31
2022-08-24T11:35:52.886Z,93455.78
2022-08-24T11:50:54.386Z,93447.88
2022-08-24T12:06:01.059Z,93444.94
2022-08-24T12:21:02.724Z,93440.44
2022-08-24T12:36:06.901Z,93427.50
2022-08-24T12:51:34.676Z,93436.72
2022-08-24T13:06:39.231Z,93441.34
2022-08-24T13:21:42.831Z,93458.69
2022-08-24T13:36:48.737Z,93467.75
2022-08-24T13:51:55.108Z,93462.06
2022-08-24T14:07:15.795Z,93444.19
2022-08-24T14:22:17.409Z,93448.88
2022-08-24T14:37:24.058Z,93449.41
2022-08-24T14:52:35.497Z,93467.88
2022-08-24T15:07:37.155Z,93450.91
2022-08-24T15:22:44.271Z,93463.19
2022-08-24T15:37:45.774Z,93480.06
2022-08-24T15:52:55.139Z,93484.56
2022-08-24T16:08:02.864Z,93490.81
2022-08-24T16:23:06.667Z,93496.53
2022-08-24T16:38:08.217Z,93496.03
2022-08-24T16:53:10.479Z,93482.41
2022-08-24T17:08:12.855Z,93521.38
2022-08-24T17:23:14.832Z,93535.59
2022-08-24T17:38:16.342Z,93555.50
2022-08-24T17:53:19.253Z,93555.28
2022-08-24T18:08:20.780Z,93589.69
2022-08-24T18:23:24.708Z,93596.22
2022-08-24T18:38:26.964Z,93596.56
2022-08-24T18:53:28.911Z,93622.22
2022-08-24T19:08:30.492Z,93643.06
2022-08-24T19:23:36.160Z,93667.94
2022-08-24T19:38:37.747Z,93665.59
2022-08-24T19:53:39.614Z,93665.25
2022-08-24T20:08:41.436Z,93639.28
2022-08-24T20:23:43.631Z,93626.59
2022-08-24T20:38:45.527Z,93607.59
2022-08-24T20:53:47.097Z,93613.59
2022-08-24T21:08:50.719Z,93607.31
2022-08-24T21:23:52.283Z,93624.88
2022-08-24T21:38:54.740Z,93632.44
2022-08-24T21:53:59.594Z,93634.97
2022-08-24T22:16:09.808Z,93620.94
2022-08-24T22:31:16.139Z,93599.78
2022-08-24T22:46:18.384Z,93581.59
2022-08-24T23:01:21.880Z,93549.16
2022-08-24T23:16:24.468Z,93554.19
2022-08-24T23:31:27.288Z,93540.16
2022-08-24T23:46:29.000Z,93542.50
